Time;durP1;ratioP1;P1;durP2;ratioP2;P2;SDS_P1;SDS_P2;PMS_P1;PMS_P2;Temp;Humidity;BMP_temperature;BMP_pressure;BME280_temperature;BME280_humidity;BME280_pressure;Samples;Min_cycle;Max_cycle;Signal;HPM_P1;HPM_P2
2023/07/20 04:02:59;;;;;;;1.90;1.80;;;16.60;97.30;;;;;;4949603;28;20505;-84
2023/07/20 04:05:31;;;;;;;3.50;2.33;;;16.60;97.30;;;;;;4952182;29;20428;-85
2023/07/20 04:08:00;;;;;;;2.80;2.60;;;16.60;97.30;;;;;;4965415;28;20458;-85
2023/07/20 04:10:30;;;;;;;3.30;2.70;;;16.60;97.30;;;;;;4958219;28;20474;-85
2023/07/20 04:12:58;;;;;;;1.60;1.50;;;16.60;97.30;;;;;;4990967;28;20433;-84
2023/07/20 04:15:27;;;;;;;1.40;1.30;;;16.60;97.30;;;;;;4989864;28;20484;-85
2023/07/20 04:17:52;;;;;;;2.23;2.03;;;16.60;97.30;;;;;;4997315;23;20567;-68
2023/07/20 04:20:18;;;;;;;1.83;1.73;;;16.70;97.30;;;;;;4981986;28;20516;-69
2023/07/20 04:22:43;;;;;;;2.63;2.50;;;16.70;97.30;;;;;;4981996;28;20649;-69
2023/07/20 04:25:09;;;;;;;2.00;1.90;;;16.70;97.30;;;;;;4986219;28;20201;-69
2023/07/20 04:27:35;;;;;;;2.50;2.30;;;16.70;97.30;;;;;;4986821;28;20865;-70
2023/07/20 04:30:02;;;;;;;1.87;1.77;;;16.70;97.30;;;;;;4988132;28;20217;-68
2023/07/20 04:32:27;;;;;;;4.50;3.10;;;16.70;97.30;;;;;;4986647;28;20799;-69
2023/07/20 04:34:53;;;;;;;1.80;1.70;;;16.70;97.30;;;;;;4985896;28;20433;-69
2023/07/20 04:37:19;;;;;;;1.80;1.70;;;16.70;97.30;;;;;;4979418;28;20178;-68
2023/07/20 04:39:45;;;;;;;1.70;1.60;;;16.70;97.30;;;;;;4985993;28;20252;-68
2023/07/20 04:42:11;;;;;;;1.53;1.33;;;16.70;97.30;;;;;;4984271;28;20860;-68
2023/07/20 04:44:36;;;;;;;2.03;1.90;;;16.70;97.30;;;;;;4980006;28;20512;-68
2023/07/20 04:47:03;;;;;;;2.10;1.60;;;16.70;97.30;;;;;;4979760;28;20607;-68
2023/07/20 04:49:29;;;;;;;2.43;2.23;;;16.70;97.30;;;;;;4984510;28;20256;-68
2023/07/20 04:51:54;;;;;;;2.17;2.00;;;16.70;97.30;;;;;;4983393;28;20432;-68
2023/07/20 04:54:20;;;;;;;3.57;2.87;;;16.70;97.30;;;;;;4984844;28;20437;-68
2023/07/20 04:56:45;;;;;;;2.93;2.73;;;16.80;97.30;;;;;;4988902;28;20293;-68
2023/07/20 04:59:11;;;;;;;3.17;2.60;;;16.80;97.30;;;;;;4987794;28;20708;-69
2023/07/20 05:01:37;;;;;;;9.47;3.50;;;16.80;97.30;;;;;;4987728;28;20206;-70
2023/07/20 05:04:02;;;;;;;2.13;2.00;;;16.80;97.30;;;;;;4994286;28;20265;-70
2023/07/20 05:06:28;;;;;;;1.40;1.30;;;16.80;97.30;;;;;;4998905;28;20181;-70
2023/07/20 05:08:54;;;;;;;2.83;2.63;;;16.80;97.30;;;;;;4997398;28;20201;-69
2023/07/20 05:11:19;;;;;;;1.70;1.60;;;16.80;97.30;;;;;;5002752;28;20612;-71
2023/07/20 05:13:45;;;;;;;6.90;3.10;;;16.80;97.30;;;;;;4996614;28;20264;-69
2023/07/20 05:16:12;;;;;;;5.53;1.73;;;16.80;97.30;;;;;;4989288;28;20285;-69
2023/07/20 05:18:37;;;;;;;2.57;1.70;;;16.80;97.30;;;;;;5005023;28;20523;-70
2023/07/20 05:21:03;;;;;;;2.53;2.37;;;16.80;97.30;;;;;;5001292;28;20438;-70
2023/07/20 05:23:29;;;;;;;2.90;2.33;;;16.80;97.30;;;;;;4990718;28;20178;-70
2023/07/20 05:25:56;;;;;;;1.87;1.80;;;16.80;97.30;;;;;;4995576;28;20186;-70
2023/07/20 05:28:22;;;;;;;3.30;2.43;;;16.80;97.30;;;;;;4998772;28;20186;-70
2023/07/20 05:30:47;;;;;;;2.13;1.97;;;16.80;97.30;;;;;;4998855;28;20471;-71
2023/07/20 05:33:13;;;;;;;1.87;1.77;;;16.80;97.30;;;;;;4991129;28;20476;-71
2023/07/20 05:35:39;;;;;;;2.40;1.90;;;16.90;97.30;;;;;;4984156;28;20453;-70
2023/07/20 05:38:06;;;;;;;2.10;1.90;;;16.90;97.30;;;;;;4992392;28;20264;-70
2023/07/20 05:40:32;;;;;;;2.33;2.13;;;16.90;97.30;;;;;;4984894;28;20232;-70
2023/07/20 05:42:58;;;;;;;1.83;1.73;;;16.90;97.30;;;;;;4982537;28;20795;-70
2023/07/20 05:45:24;;;;;;;13.97;1.90;;;17.00;97.30;;;;;;4984593;28;20573;-71
2023/07/20 05:47:49;;;;;;;7.00;2.23;;;17.00;97.30;;;;;;4986455;28;20429;-70
2023/07/20 05:50:15;;;;;;;19.37;1.90;;;17.00;97.30;;;;;;4987263;28;20610;-70
2023/07/20 05:52:41;;;;;;;2.40;2.20;;;17.00;97.30;;;;;;4987116;28;20240;-71
2023/07/20 05:55:07;;;;;;;4.30;3.17;;;17.00;97.30;;;;;;4987187;28;20424;-70
2023/07/20 05:57:33;;;;;;;31.47;3.13;;;16.90;97.30;;;;;;4987444;28;20236;-70
2023/07/20 05:59:59;;;;;;;3.00;2.10;;;16.90;97.30;;;;;;4986851;28;20425;-71
2023/07/20 06:02:24;;;;;;;2.53;2.27;;;16.90;97.30;;;;;;4982093;28;20206;-70
2023/07/20 06:04:50;;;;;;;1.90;1.83;;;16.90;97.30;;;;;;4983757;28;20190;-70
2023/07/20 06:07:15;;;;;;;10.43;3.13;;;16.90;97.30;;;;;;4973985;28;20277;-70
2023/07/20 06:09:41;;;;;;;15.93;1.93;;;17.00;97.30;;;;;;4981814;28;20209;-69
2023/07/20 06:12:07;;;;;;;2.80;2.47;;;17.00;97.30;;;;;;4980641;28;20209;-70
2023/07/20 06:14:33;;;;;;;3.10;2.70;;;17.00;97.30;;;;;;4989817;28;20181;-69
2023/07/20 06:16:59;;;;;;;4.57;2.60;;;17.10;97.30;;;;;;4985777;28;20429;-68
2023/07/20 06:19:25;;;;;;;5.33;2.67;;;17.10;97.30;;;;;;4977455;28;20424;-68
2023/07/20 06:21:50;;;;;;;2.40;2.20;;;17.10;97.30;;;;;;4981637;28;20202;-69
2023/07/20 06:24:17;;;;;;;3.07;1.90;;;17.20;97.30;;;;;;4978681;28;20181;-68
2023/07/20 06:26:43;;;;;;;1.30;1.27;;;17.20;97.30;;;;;;4993094;28;20260;-68
2023/07/20 06:29:11;;;;;;;1.53;1.43;;;17.20;97.30;;;;;;4983234;28;20528;-68
2023/07/20 06:31:37;;;;;;;5.03;1.40;;;17.20;97.30;;;;;;4976993;28;20202;-68
2023/07/20 06:34:03;;;;;;;1.70;1.60;;;17.20;97.30;;;;;;4989679;28;20512;-68
2023/07/20 06:36:28;;;;;;;1.53;1.43;;;17.20;97.30;;;;;;4980049;28;20185;-69
2023/07/20 06:38:55;;;;;;;1.40;1.40;;;17.20;97.30;;;;;;4976506;28;20420;-70
2023/07/20 06:41:21;;;;;;;1.40;1.30;;;17.20;97.30;;;;;;4983548;28;20240;-70
2023/07/20 06:43:47;;;;;;;2.47;2.10;;;17.20;97.30;;;;;;4984602;28;20445;-70
2023/07/20 06:46:12;;;;;;;2.50;1.77;;;17.20;97.30;;;;;;4985313;28;20186;-70
2023/07/20 06:48:38;;;;;;;2.00;1.90;;;17.20;97.30;;;;;;4989095;28;20235;-69
2023/07/20 06:51:03;;;;;;;3.47;2.07;;;17.20;97.30;;;;;;4985903;28;20342;-69
2023/07/20 06:53:30;;;;;;;1.77;1.63;;;17.20;97.30;;;;;;4972902;28;20175;-69
2023/07/20 06:55:57;;;;;;;2.73;1.60;;;17.30;97.30;;;;;;4975012;28;20187;-69
2023/07/20 06:58:23;;;;;;;1.60;1.50;;;17.30;97.30;;;;;;4982466;28;20409;-68
2023/07/20 07:00:49;;;;;;;3.50;2.00;;;17.40;97.30;;;;;;4989992;28;20444;-69
2023/07/20 07:03:14;;;;;;;4.77;2.83;;;17.40;97.30;;;;;;4992261;28;20435;-69
2023/07/20 07:05:40;;;;;;;1.60;1.50;;;17.40;97.30;;;;;;4982590;28;20530;-69
2023/07/20 07:08:05;;;;;;;3.50;1.87;;;17.50;97.30;;;;;;4991187;28;20174;-69
2023/07/20 07:10:32;;;;;;;1.37;1.10;;;17.50;97.30;;;;;;4974503;28;20718;-69
2023/07/20 07:12:57;;;;;;;2.73;2.50;;;17.60;97.30;;;;;;4983071;28;20182;-69
2023/07/20 07:15:23;;;;;;;1.60;1.50;;;17.70;97.30;;;;;;4975864;28;20491;-68
2023/07/20 07:17:49;;;;;;;1.80;1.70;;;17.80;97.30;;;;;;4988538;28;20217;-68
2023/07/20 07:20:15;;;;;;;5.87;1.70;;;17.80;97.30;;;;;;4979364;28;20179;-68
2023/07/20 07:22:45;;;;;;;2.20;1.93;;;17.90;97.30;;;;;;4972911;28;20977;-69
2023/07/20 07:25:10;;;;;;;3.67;2.50;;;17.90;97.30;;;;;;4983945;28;20660;-68
2023/07/20 07:27:36;;;;;;;2.77;1.80;;;17.90;97.30;;;;;;4983747;28;20509;-68
2023/07/20 07:30:03;;;;;;;2.43;2.23;;;17.90;97.30;;;;;;4982411;28;20198;-68
2023/07/20 07:32:28;;;;;;;1.80;1.50;;;17.90;97.30;;;;;;4983216;28;20531;-67
2023/07/20 07:34:55;;;;;;;3.43;2.30;;;17.90;97.30;;;;;;4986382;28;20429;-68
2023/07/20 07:37:20;;;;;;;1.83;1.67;;;17.90;97.30;;;;;;4986961;28;20705;-68
2023/07/20 07:39:46;;;;;;;1.73;1.63;;;17.90;97.30;;;;;;4983430;28;20598;-68
2023/07/20 07:42:12;;;;;;;2.00;1.47;;;17.90;97.30;;;;;;4986711;28;20694;-68
2023/07/20 07:44:38;;;;;;;3.60;2.83;;;17.90;97.30;;;;;;4987800;28;20334;-68
2023/07/20 07:47:04;;;;;;;1.40;1.30;;;17.90;97.30;;;;;;4985947;28;20581;-68
2023/07/20 07:49:31;;;;;;;1.93;1.40;;;17.90;97.30;;;;;;4979764;28;20670;-68
2023/07/20 07:51:56;;;;;;;1.40;1.27;;;18.00;97.30;;;;;;4983187;28;20588;-67
2023/07/20 07:54:22;;;;;;;2.20;1.80;;;18.00;97.30;;;;;;4989765;28;20557;-68
2023/07/20 07:56:48;;;;;;;1.77;1.70;;;18.00;97.30;;;;;;4989395;28;20232;-67
2023/07/20 07:59:13;;;;;;;27.23;2.17;;;18.00;97.30;;;;;;4984060;28;20215;-69
2023/07/20 08:01:39;;;;;;;2.70;2.07;;;18.00;97.30;;;;;;4981621;28;20677;-68
2023/07/20 08:04:04;;;;;;;1.50;1.40;;;18.00;97.30;;;;;;4982923;28;20248;-69
2023/07/20 08:06:31;;;;;;;3.57;2.37;;;18.00;97.30;;;;;;4991202;28;20182;-68
2023/07/20 08:08:57;;;;;;;1.40;1.30;;;18.00;97.30;;;;;;4989683;28;20184;-68
2023/07/20 08:11:23;;;;;;;1.53;1.47;;;18.00;97.30;;;;;;4991340;28;20441;-68
2023/07/20 08:13:49;;;;;;;1.60;1.40;;;18.00;97.30;;;;;;4981045;28;20414;-70
2023/07/20 08:16:14;;;;;;;2.17;1.70;;;18.10;97.30;;;;;;4988199;28;20432;-69
2023/07/20 08:18:40;;;;;;;4.50;2.30;;;18.20;97.30;;;;;;4980188;28;20725;-68
2023/07/20 08:21:06;;;;;;;3.43;2.30;;;18.20;97.30;;;;;;4980521;28;20193;-68
2023/07/20 08:23:31;;;;;;;2.30;2.13;;;18.30;97.30;;;;;;4981280;28;20178;-68
2023/07/20 08:25:57;;;;;;;2.33;2.13;;;18.40;97.30;;;;;;4983071;28;20273;-67
2023/07/20 08:28:22;;;;;;;4.20;2.80;;;18.60;97.30;;;;;;4990690;28;20189;-69
2023/07/20 08:30:49;;;;;;;2.63;2.43;;;18.70;97.30;;;;;;4974326;28;20356;-67
2023/07/20 08:33:19;;;;;;;2.27;2.13;;;18.90;97.30;;;;;;4989161;28;20178;-68
2023/07/20 08:35:46;;;;;;;1.83;1.73;;;19.00;97.30;;;;;;4982260;28;20421;-68
2023/07/20 08:38:12;;;;;;;1.97;1.87;;;19.00;97.30;;;;;;4989069;28;20429;-68
2023/07/20 08:40:42;;;;;;;2.60;2.17;;;19.00;97.30;;;;;;4982351;28;20437;-68
2023/07/20 08:43:13;;;;;;;1.80;1.70;;;18.90;97.30;;;;;;4986512;28;20483;-69
2023/07/20 08:45:40;;;;;;;3.13;1.80;;;18.80;97.30;;;;;;4985557;28;20863;-67
2023/07/20 08:48:07;;;;;;;2.97;2.33;;;18.80;97.30;;;;;;4986753;28;20418;-68
2023/07/20 08:50:34;;;;;;;1.90;1.80;;;18.70;97.30;;;;;;4979180;28;20777;-68
2023/07/20 08:53:00;;;;;;;1.10;1.00;;;18.70;97.30;;;;;;4988577;28;20413;-68
2023/07/20 08:55:27;;;;;;;1.20;1.17;;;18.70;97.30;;;;;;4988673;28;20433;-68
2023/07/20 08:57:57;;;;;;;3.47;1.70;;;18.80;97.30;;;;;;4988468;28;20424;-68
2023/07/20 09:00:23;;;;;;;1.93;1.83;;;18.80;97.30;;;;;;4982623;28;20446;-68
2023/07/20 09:02:53;;;;;;;2.40;2.20;;;18.80;97.30;;;;;;4985411;28;20798;-68
2023/07/20 09:05:20;;;;;;;2.40;2.23;;;18.80;97.30;;;;;;4984112;28;20955;-68
2023/07/20 09:07:46;;;;;;;2.33;2.13;;;18.90;97.30;;;;;;4987827;28;20432;-67
2023/07/20 09:10:12;;;;;;;3.37;3.03;;;19.00;97.30;;;;;;4981688;28;20468;-68
2023/07/20 09:12:42;;;;;;;3.70;2.93;;;19.10;97.30;;;;;;4982493;28;20449;-68
2023/07/20 09:15:10;;;;;;;2.03;1.87;;;19.20;97.30;;;;;;4981058;28;20471;-68
2023/07/20 09:17:35;;;;;;;4.53;2.40;;;19.40;97.30;;;;;;4989831;28;20464;-68
2023/07/20 09:20:11;;;;;;;2.33;2.13;;;19.50;97.30;;;;;;4981518;28;20409;-67
2023/07/20 09:22:40;;;;;;;1.50;1.40;;;19.60;97.30;;;;;;4982330;28;20658;-67
2023/07/20 09:25:15;;;;;;;5.07;2.63;;;19.60;97.30;;;;;;4979121;28;20468;-68
2023/07/20 09:27:46;;;;;;;2.30;2.10;;;19.50;97.30;;;;;;4989548;28;20924;-68
2023/07/20 09:30:14;;;;;;;1.90;1.43;;;19.50;97.30;;;;;;4997260;28;20495;-68
2023/07/20 09:32:45;;;;;;;3.07;2.87;;;19.40;97.30;;;;;;4980344;28;20425;-68
2023/07/20 09:35:16;;;;;;;3.10;2.10;;;19.40;97.30;;;;;;4982040;28;20464;-67
2023/07/20 09:37:54;;;;;;;2.97;1.87;;;19.40;97.30;;;;;;4987621;28;20796;-67
2023/07/20 09:40:20;;;;;;;3.07;2.87;;;19.40;97.30;;;;;;4975086;28;20422;-67
2023/07/20 09:42:46;;;;;;;1.90;1.80;;;19.30;97.30;;;;;;4983204;28;20507;-69
2023/07/20 09:45:12;;;;;;;10.50;1.70;;;19.20;97.30;;;;;;4971243;28;20460;-69
2023/07/20 09:47:38;;;;;;;1.70;1.60;;;19.10;97.30;;;;;;4987458;28;20448;-70
2023/07/20 09:50:10;;;;;;;2.60;2.33;;;19.10;97.30;;;;;;4987788;28;20197;-68
2023/07/20 09:52:37;;;;;;;2.23;2.03;;;19.10;97.30;;;;;;4982360;28;20485;-67
2023/07/20 09:55:03;;;;;;;2.77;2.57;;;19.00;97.30;;;;;;4980642;28;20431;-66
2023/07/20 09:57:30;;;;;;;1.97;1.70;;;19.00;97.30;;;;;;4989315;28;20467;-67
2023/07/20 09:59:57;;;;;;;5.30;3.10;;;19.00;97.30;;;;;;4977976;28;20850;-67
2023/07/20 10:02:27;;;;;;;3.87;2.90;;;18.90;97.30;;;;;;4981717;28;20457;-69
2023/07/20 10:04:54;;;;;;;3.27;2.23;;;18.80;97.30;;;;;;4979649;28;20454;-68
2023/07/20 10:07:23;;;;;;;3.60;3.20;;;18.60;97.30;;;;;;4981296;28;20842;-68
2023/07/20 10:09:52;;;;;;;3.10;2.50;;;18.50;97.30;;;;;;4980460;28;20499;-68
2023/07/20 10:12:19;;;;;;;2.70;1.83;;;18.40;97.30;;;;;;4980802;28;20440;-67
2023/07/20 10:14:58;;;;;;;4.83;3.37;;;18.30;97.30;;;;;;4973306;28;20421;-68
2023/07/20 10:17:25;;;;;;;3.13;2.93;;;18.20;97.30;;;;;;4999210;23;20477;-76
2023/07/20 10:19:56;;;;;;;8.27;3.40;;;18.20;97.30;;;;;;4968002;28;20469;-74
2023/07/20 10:22:26;;;;;;;2.67;2.47;;;18.20;97.30;;;;;;4974559;28;20551;-76
2023/07/20 10:24:54;;;;;;;2.10;1.43;;;18.20;97.30;;;;;;4969365;28;20413;-77
2023/07/20 10:27:20;;;;;;;1.63;1.53;;;18.20;97.30;;;;;;4975699;28;20418;-76
2023/07/20 10:29:47;;;;;;;2.00;1.90;;;18.20;97.30;;;;;;4969591;28;20469;-77
2023/07/20 10:32:13;;;;;;;1.43;1.33;;;18.20;97.30;;;;;;4969644;28;20961;-77
2023/07/20 10:34:39;;;;;;;6.10;1.60;;;18.20;97.30;;;;;;4972783;28;20420;-78
2023/07/20 10:37:05;;;;;;;9.43;1.83;;;18.20;97.30;;;;;;4977452;28;20455;-77
2023/07/20 10:39:32;;;;;;;4.53;2.30;;;18.20;97.30;;;;;;4968251;28;20198;-77
2023/07/20 10:42:07;;;;;;;2.20;1.93;;;18.20;97.30;;;;;;4969930;28;20454;-76
2023/07/20 10:44:33;;;;;;;3.47;2.83;;;18.20;97.30;;;;;;4973426;28;20438;-76
2023/07/20 10:47:01;;;;;;;3.00;2.37;;;18.20;97.30;;;;;;4976182;28;20430;-75
2023/07/20 10:49:27;;;;;;;4.43;2.43;;;18.30;97.30;;;;;;4968426;28;20473;-75
2023/07/20 10:51:59;;;;;;;2.20;2.00;;;18.40;97.30;;;;;;4968076;28;20445;-76
2023/07/20 10:54:27;;;;;;;2.00;1.90;;;18.40;97.30;;;;;;4961720;28;20932;-75
2023/07/20 10:56:55;;;;;;;7.47;1.87;;;18.50;97.30;;;;;;4977114;28;20422;-76
2023/07/20 10:59:41;;;;;;;2.67;1.40;;;18.50;97.30;;;;;;4972842;28;20422;-76
2023/07/20 11:02:07;;;;;;;3.57;1.67;;;18.50;97.30;;;;;;4971363;28;20453;-76
2023/07/20 11:04:41;;;;;;;1.90;1.73;;;18.50;97.30;;;;;;4981401;28;20508;-78
2023/07/20 11:07:07;;;;;;;3.80;2.33;;;18.50;97.30;;;;;;4975237;28;20454;-76
2023/07/20 11:09:37;;;;;;;4.30;2.50;;;18.50;97.30;;;;;;4976798;28;20829;-76
2023/07/20 11:12:21;;;;;;;2.50;2.17;;;18.50;97.30;;;;;;4980305;28;20274;-76
2023/07/20 11:14:57;;;;;;;2.83;2.50;;;18.50;97.30;;;;;;4976838;28;20421;-76
2023/07/20 11:17:30;;;;;;;1.53;1.43;;;18.50;97.30;;;;;;4975799;28;20958;-76
2023/07/20 11:19:57;;;;;;;5.77;3.10;;;18.60;97.30;;;;;;4975003;28;20426;-74
2023/07/20 11:22:24;;;;;;;2.33;1.70;;;18.70;97.30;;;;;;4979303;28;20865;-76
2023/07/20 11:24:50;;;;;;;1.57;1.47;;;18.80;97.30;;;;;;4979480;28;20430;-74
2023/07/20 11:27:16;;;;;;;1.87;1.60;;;18.80;97.30;;;;;;4980346;28;20559;-74
2023/07/20 11:29:41;;;;;;;2.63;1.80;;;18.90;97.30;;;;;;4972489;28;20604;-77
2023/07/20 11:32:07;;;;;;;2.83;2.53;;;18.90;97.30;;;;;;4965545;28;20214;-74
2023/07/20 11:34:34;;;;;;;1.40;1.30;;;18.80;97.30;;;;;;4968375;28;20174;-74
2023/07/20 11:37:00;;;;;;;2.47;1.90;;;18.80;97.30;;;;;;4964266;28;20480;-74
2023/07/20 11:39:27;;;;;;;1.97;1.60;;;18.80;97.30;;;;;;4976376;28;20481;-74
2023/07/20 11:41:55;;;;;;;2.23;1.97;;;18.80;97.30;;;;;;4961636;28;20446;-74
2023/07/20 11:44:29;;;;;;;2.67;2.47;;;18.80;97.30;;;;;;4983077;28;20425;-73
2023/07/20 11:47:03;;;;;;;3.23;1.97;;;18.70;97.30;;;;;;4974171;28;20426;-74
2023/07/20 11:49:30;;;;;;;2.33;2.13;;;18.70;97.30;;;;;;4971684;28;20479;-75
2023/07/20 11:51:56;;;;;;;1.70;1.60;;;18.70;97.30;;;;;;4971920;28;20445;-75
2023/07/20 11:54:23;;;;;;;1.80;1.63;;;18.80;97.30;;;;;;4967806;28;20551;-74
2023/07/20 11:56:54;;;;;;;1.67;1.57;;;18.90;97.30;;;;;;4983165;28;20420;-75
2023/07/20 11:59:19;;;;;;;1.90;1.50;;;19.00;97.30;;;;;;4963086;28;20521;-74
2023/07/20 12:01:45;;;;;;;1.90;1.83;;;19.10;97.30;;;;;;4972222;28;20517;-73
2023/07/20 12:04:10;;;;;;;12.43;1.97;;;19.20;97.30;;;;;;4970360;28;20206;-75
2023/07/20 12:06:36;;;;;;;1.43;1.33;;;19.20;97.30;;;;;;4972145;28;20198;-76
2023/07/20 12:09:02;;;;;;;2.07;1.83;;;19.20;97.30;;;;;;4979404;28;20552;-78
2023/07/20 12:11:38;;;;;;;7.90;1.80;;;19.10;97.30;;;;;;4977134;28;20242;-76
2023/07/20 12:14:07;;;;;;;1.50;1.40;;;19.10;97.30;;;;;;4987878;28;20268;-76
2023/07/20 12:16:32;;;;;;;1.63;1.40;;;19.10;97.30;;;;;;4965033;28;20414;-75
2023/07/20 12:19:03;;;;;;;1.53;1.50;;;19.10;97.30;;;;;;4976736;28;20479;-75
2023/07/20 12:21:30;;;;;;;1.30;1.20;;;19.10;97.30;;;;;;4962432;28;20194;-75
2023/07/20 12:23:58;;;;;;;1.67;1.43;;;19.10;97.30;;;;;;4970315;28;20422;-75
2023/07/20 12:26:25;;;;;;;1.33;1.23;;;19.10;97.30;;;;;;4981923;28;20414;-74
2023/07/20 12:28:51;;;;;;;1.40;1.30;;;19.10;97.30;;;;;;4964301;28;20547;-76
2023/07/20 12:31:16;;;;;;;1.63;1.53;;;19.20;97.30;;;;;;4975517;28;20569;-75
2023/07/20 12:33:42;;;;;;;1.00;0.90;;;19.30;97.30;;;;;;4972864;28;20184;-76
2023/07/20 12:36:09;;;;;;;7.70;2.13;;;19.40;97.30;;;;;;4973609;28;20183;-75
2023/07/20 12:38:35;;;;;;;1.43;1.40;;;19.50;97.30;;;;;;4990049;28;20189;-74
2023/07/20 12:41:02;;;;;;;2.20;1.10;;;19.60;97.30;;;;;;4987497;28;20444;-75
2023/07/20 12:43:28;;;;;;;2.73;1.30;;;19.70;97.30;;;;;;4970243;28;20189;-75
2023/07/20 12:45:54;;;;;;;1.50;1.40;;;19.80;97.30;;;;;;4975631;28;20950;-76
2023/07/20 12:48:20;;;;;;;1.10;1.03;;;19.80;97.30;;;;;;4981691;28;21216;-75
2023/07/20 12:50:46;;;;;;;1.10;1.00;;;19.80;97.30;;;;;;4970672;28;20613;-75
2023/07/20 12:53:11;;;;;;;1.40;1.30;;;19.90;97.30;;;;;;4967531;28;20226;-76
2023/07/20 12:55:39;;;;;;;1.30;1.20;;;19.90;97.30;;;;;;4970488;28;20740;-75
2023/07/20 12:58:05;;;;;;;1.30;1.20;;;19.90;97.30;;;;;;4970783;28;20434;-78
2023/07/20 13:00:31;;;;;;;1.00;0.90;;;20.10;97.30;;;;;;4974818;28;20445;-76
2023/07/20 13:02:57;;;;;;;1.53;1.40;;;20.20;97.30;;;;;;4967087;28;20540;-75
2023/07/20 13:05:23;;;;;;;4.00;1.47;;;20.30;97.30;;;;;;4976680;28;20460;-77
2023/07/20 13:07:49;;;;;;;4.50;1.33;;;20.40;96.60;;;;;;4971657;28;20190;-71
2023/07/20 13:10:15;;;;;;;0.97;0.90;;;20.40;96.80;;;;;;4985330;28;20459;-74
2023/07/20 13:12:40;;;;;;;1.30;1.20;;;20.40;96.00;;;;;;4974961;28;20550;-76
2023/07/20 13:15:08;;;;;;;1.30;1.20;;;20.30;97.00;;;;;;4963974;28;20215;-76
2023/07/20 13:17:35;;;;;;;1.30;1.20;;;20.20;97.20;;;;;;4978317;28;20233;-76
2023/07/20 13:20:04;;;;;;;1.10;1.00;;;20.30;97.30;;;;;;4965477;28;20513;-75
2023/07/20 13:22:30;;;;;;;1.27;1.20;;;20.40;97.30;;;;;;4966939;28;20540;-74
2023/07/20 13:24:56;;;;;;;1.03;0.93;;;20.50;97.20;;;;;;4966857;28;20429;-75
2023/07/20 13:27:22;;;;;;;1.00;0.90;;;20.50;96.30;;;;;;4965939;28;20484;-75
2023/07/20 13:29:48;;;;;;;2.93;1.50;;;20.60;96.20;;;;;;4967352;28;20222;-76
2023/07/20 13:32:15;;;;;;;1.00;0.90;;;20.60;95.90;;;;;;4967640;28;20812;-75
2023/07/20 13:34:41;;;;;;;1.60;1.40;;;20.70;96.90;;;;;;4967554;28;20675;-79
2023/07/20 13:37:09;;;;;;;0.90;0.90;;;20.70;95.00;;;;;;4954936;28;20899;-76
2023/07/20 13:39:34;;;;;;;1.30;1.23;;;20.70;94.90;;;;;;4967389;28;20453;-76
2023/07/20 13:42:03;;;;;;;3.13;1.93;;;20.80;94.80;;;;;;4968589;28;20484;-79
2023/07/20 13:44:29;;;;;;;1.63;1.43;;;20.90;93.60;;;;;;4968800;28;20686;-77
2023/07/20 13:46:55;;;;;;;3.27;2.57;;;21.00;94.60;;;;;;4968883;28;20488;-79
2023/07/20 13:49:20;;;;;;;2.90;1.90;;;21.10;94.10;;;;;;4968703;28;20210;-77
2023/07/20 13:51:46;;;;;;;2.30;2.10;;;21.20;93.20;;;;;;4968451;28;20279;-76
2023/07/20 13:54:12;;;;;;;2.23;1.70;;;21.40;94.00;;;;;;4968613;28;20654;-78
2023/07/20 13:56:38;;;;;;;2.07;1.93;;;21.70;92.80;;;;;;4968670;28;20444;-76
2023/07/20 13:59:03;;;;;;;2.80;2.20;;;21.90;92.30;;;;;;4969297;28;20554;-78
2023/07/20 14:01:31;;;;;;;2.60;1.93;;;22.00;91.40;;;;;;4970885;28;20217;-77
2023/07/20 14:03:57;;;;;;;1.43;1.33;;;21.90;89.30;;;;;;4969772;28;20273;-77
2023/07/20 14:06:22;;;;;;;2.37;2.13;;;21.70;89.30;;;;;;4970208;28;20506;-77
2023/07/20 14:08:49;;;;;;;1.43;1.33;;;21.50;88.80;;;;;;4970483;28;20179;-78
2023/07/20 14:11:15;;;;;;;1.60;1.50;;;21.60;89.70;;;;;;4964699;28;20206;-78
2023/07/20 14:13:41;;;;;;;4.33;1.93;;;21.70;89.30;;;;;;4966963;28;20472;-78
2023/07/20 14:16:08;;;;;;;3.37;2.03;;;21.70;88.40;;;;;;4976871;28;20421;-78
2023/07/20 14:18:33;;;;;;;1.70;1.60;;;21.70;88.20;;;;;;4981562;28;20236;-79
2023/07/20 14:20:59;;;;;;;1.60;1.20;;;21.80;87.90;;;;;;4971734;28;21057;-78
2023/07/20 14:23:25;;;;;;;1.40;1.30;;;21.80;87.20;;;;;;4976048;28;20187;-78
2023/07/20 14:25:50;;;;;;;1.00;0.90;;;21.80;87.20;;;;;;4967768;28;20938;-77
2023/07/20 14:28:16;;;;;;;1.50;1.43;;;21.70;87.60;;;;;;4968110;28;20273;-76
2023/07/20 14:30:42;;;;;;;2.27;1.40;;;21.80;89.00;;;;;;4962947;28;20250;-78
2023/07/20 14:33:08;;;;;;;1.87;1.77;;;22.10;88.00;;;;;;4981040;28;20325;-79
2023/07/20 14:35:34;;;;;;;1.43;1.40;;;22.30;86.80;;;;;;4977239;28;20721;-79
2023/07/20 14:38:00;;;;;;;1.57;0.90;;;22.50;87.20;;;;;;4974990;28;20182;-82
2023/07/20 14:40:26;;;;;;;1.27;1.17;;;22.60;84.90;;;;;;4975649;28;20506;-78
2023/07/20 14:42:52;;;;;;;2.00;1.90;;;22.80;87.00;;;;;;4980135;28;20906;-82
2023/07/20 14:45:18;;;;;;;1.40;1.30;;;23.10;85.70;;;;;;4975994;28;20899;-80
2023/07/20 14:47:45;;;;;;;3.57;1.53;;;23.30;83.80;;;;;;4977787;28;21058;-84
2023/07/20 14:50:10;;;;;;;2.20;1.73;;;23.40;83.40;;;;;;4988107;28;20819;-82
2023/07/20 14:52:36;;;;;;;2.73;1.60;;;23.40;83.30;;;;;;4979034;28;20422;-81
2023/07/20 14:55:01;;;;;;;1.33;1.23;;;23.50;84.10;;;;;;4971602;28;20174;-80
2023/07/20 14:57:27;;;;;;;1.77;1.40;;;23.70;83.20;;;;;;4974682;28;20174;-80
2023/07/20 14:59:53;;;;;;;1.40;1.30;;;23.80;83.70;;;;;;4975315;28;20655;-83
2023/07/20 15:02:18;;;;;;;1.70;1.70;;;24.00;82.00;;;;;;4974324;28;20752;-80
2023/07/20 15:04:51;;;;;;;1.10;1.00;;;23.80;80.10;;;;;;4975453;28;20183;-81
2023/07/20 15:07:18;;;;;;;1.20;1.10;;;23.40;80.40;;;;;;4978618;28;20443;-79
2023/07/20 15:09:44;;;;;;;2.83;1.80;;;23.00;81.90;;;;;;4970578;28;20456;-77
2023/07/20 15:12:10;;;;;;;1.53;1.43;;;22.80;82.50;;;;;;4976488;28;20476;-79
2023/07/20 15:14:40;;;;;;;1.43;1.40;;;22.80;84.00;;;;;;4978601;28;20665;-81
2023/07/20 15:17:05;;;;;;;1.77;1.67;;;23.00;82.90;;;;;;4972433;28;20265;-78
2023/07/20 15:19:31;;;;;;;2.00;1.83;;;23.20;84.60;;;;;;4968801;28;21211;-79
2023/07/20 15:21:56;;;;;;;1.23;1.13;;;23.50;82.90;;;;;;4977565;28;20209;-79
2023/07/20 15:24:22;;;;;;;3.17;1.60;;;23.80;82.80;;;;;;4970830;28;20593;-79
2023/07/20 15:26:47;;;;;;;1.83;1.20;;;24.10;81.50;;;;;;4969169;28;20186;-80
2023/07/20 15:29:13;;;;;;;1.10;1.00;;;24.30;78.10;;;;;;4982711;28;20182;-79
2023/07/20 15:31:39;;;;;;;1.00;0.90;;;24.50;77.70;;;;;;4980142;28;20697;-82
2023/07/20 15:34:04;;;;;;;1.10;1.00;;;24.60;75.30;;;;;;4984872;28;20188;-81
2023/07/20 15:36:30;;;;;;;1.10;1.00;;;24.80;76.50;;;;;;4978234;28;20180;-78
2023/07/20 15:38:56;;;;;;;1.10;1.00;;;25.00;76.00;;;;;;4980140;28;20182;-73
2023/07/20 15:41:22;;;;;;;1.10;1.00;;;25.00;75.20;;;;;;4985861;28;20864;-80
2023/07/20 15:43:48;;;;;;;1.63;1.57;;;24.90;74.20;;;;;;4970099;28;20650;-82
2023/07/20 15:46:20;;;;;;;4.63;1.20;;;24.90;73.70;;;;;;4971217;28;20167;-78
2023/07/20 15:48:49;;;;;;;0.97;0.90;;;24.80;73.20;;;;;;4978820;28;20490;-80
2023/07/20 15:51:14;;;;;;;1.60;1.00;;;24.90;73.10;;;;;;4988108;28;20499;-80
2023/07/20 15:53:40;;;;;;;1.30;1.20;;;25.00;73.70;;;;;;4978839;28;20910;-78
2023/07/20 15:56:06;;;;;;;1.27;1.27;;;25.00;71.30;;;;;;4969673;28;20221;-76
2023/07/20 15:58:32;;;;;;;1.23;1.13;;;24.80;72.80;;;;;;4970360;28;20266;-77
2023/07/20 16:00:59;;;;;;;1.20;1.10;;;24.60;73.50;;;;;;4979141;28;20572;-76
2023/07/20 16:03:25;;;;;;;1.00;0.90;;;24.40;73.40;;;;;;4971407;28;20808;-78
2023/07/20 16:05:53;;;;;;;1.93;1.23;;;24.30;74.50;;;;;;4983550;28;20651;-77
2023/07/20 16:08:18;;;;;;;0.90;0.80;;;24.40;74.50;;;;;;4972179;28;20504;-76
2023/07/20 16:10:44;;;;;;;1.03;0.97;;;24.60;74.80;;;;;;4974449;28;20984;-78
2023/07/20 16:13:10;;;;;;;0.90;0.87;;;24.70;75.00;;;;;;4981265;28;20185;-78
2023/07/20 16:15:35;;;;;;;1.00;0.90;;;24.80;73.00;;;;;;4990372;28;20182;-80
2023/07/20 16:18:01;;;;;;;0.97;0.87;;;24.90;73.10;;;;;;4982662;28;20240;-81
2023/07/20 16:20:29;;;;;;;1.30;1.20;;;24.90;73.90;;;;;;4987161;23;20238;-88
2023/07/20 16:22:58;;;;;;;0.90;0.87;;;25.00;73.30;;;;;;4978553;28;20793;-87
2023/07/20 16:25:31;;;;;;;0.93;0.83;;;25.10;73.00;;;;;;4973098;28;21030;-87
2023/07/20 16:27:59;;;;;;;1.17;1.10;;;25.10;71.60;;;;;;4973737;28;20425;-85
2023/07/20 16:30:27;;;;;;;1.87;1.07;;;25.00;72.40;;;;;;4964088;28;20492;-84
2023/07/20 16:33:01;;;;;;;1.00;0.90;;;25.00;72.70;;;;;;4989031;28;20947;-84
2023/07/20 16:35:29;;;;;;;1.00;0.90;;;24.80;72.80;;;;;;4989046;28;20418;-85
2023/07/20 16:38:02;;;;;;;0.97;0.93;;;24.80;73.20;;;;;;4972252;28;20492;-85
2023/07/20 16:40:27;;;;;;;0.70;0.70;;;24.90;74.00;;;;;;4970269;28;20497;-87
2023/07/20 16:43:00;;;;;;;1.00;0.90;;;25.00;73.50;;;;;;4966873;28;20834;-85
2023/07/20 16:45:29;;;;;;;1.53;1.23;;;24.90;72.70;;;;;;4972851;28;20183;-85